createdAt,value
2018-12-23T00:01:23.693Z,66.71
2018-12-23T00:03:54.728Z,66.89
2018-12-23T00:06:24.657Z,67.14
2018-12-23T00:08:54.645Z,67.64
2018-12-23T00:11:24.653Z,66.55
2018-12-23T00:13:54.697Z,66.50
2018-12-23T00:16:24.613Z,67.01
2018-12-23T00:18:54.536Z,66.61
2018-12-23T00:21:24.448Z,66.87
2018-12-23T00:23:54.353Z,66.50
2018-12-23T00:26:24.281Z,66.73
2018-12-23T00:28:54.190Z,66.88
2018-12-23T00:31:24.277Z,67.50
2018-12-23T00:33:54.193Z,67.42
2018-12-23T00:36:24.097Z,67.69
2018-12-23T00:38:55.322Z,66.36
2018-12-23T00:41:25.812Z,67.49
2018-12-23T00:43:55.801Z,67.46
2018-12-23T00:46:25.722Z,67.20
2018-12-23T00:48:55.784Z,67.49
2018-12-23T00:51:25.693Z,66.73
2018-12-23T00:53:55.773Z,67.69
2018-12-23T00:56:25.865Z,67.46
2018-12-23T00:58:55.904Z,67.41
2018-12-23T01:01:25.970Z,68.14
2018-12-23T01:03:55.893Z,68.02
2018-12-23T01:06:25.796Z,67.99
2018-12-23T01:08:55.722Z,68.09
2018-12-23T01:11:25.861Z,67.72
2018-12-23T01:13:55.778Z,68.83
2018-12-23T01:16:25.749Z,68.56
2018-12-23T01:18:55.692Z,68.38
2018-12-23T01:21:25.602Z,68.38
2018-12-23T01:23:55.588Z,68.34
2018-12-23T01:26:25.500Z,68.17
2018-12-23T01:28:56.529Z,68.97
2018-12-23T01:31:26.490Z,68.51
2018-12-23T01:33:56.409Z,67.67
2018-12-23T01:36:26.316Z,67.58
2018-12-23T01:38:56.310Z,67.20
2018-12-23T01:41:26.217Z,68.05
2018-12-23T01:43:56.223Z,67.03
2018-12-23T01:46:26.232Z,67.12
2018-12-23T01:48:56.161Z,67.46
2018-12-23T01:51:26.212Z,67.14
2018-12-23T01:53:56.124Z,67.48
2018-12-23T01:56:26.026Z,66.86
2018-12-23T01:58:56.121Z,66.03
2018-12-23T02:01:26.104Z,66.27
2018-12-23T02:03:56.029Z,66.22
2018-12-23T02:06:26.032Z,66.24
2018-12-23T02:08:55.966Z,66.59
2018-12-23T02:11:25.884Z,66.33
2018-12-23T02:13:56.053Z,66.20
2018-12-23T02:16:26.029Z,66.30
2018-12-23T02:18:56.049Z,66.54
2018-12-23T02:21:26.063Z,66.22
2018-12-23T02:23:56.110Z,66.46
2018-12-23T02:26:26.026Z,66.37
2018-12-23T02:28:56.142Z,66.00
2018-12-23T02:34:01.208Z,65.89
2018-12-23T02:36:31.286Z,66.25
2018-12-23T02:39:01.277Z,66.31
2018-12-23T02:41:32.117Z,66.20
2018-12-23T02:44:02.221Z,66.40
2018-12-23T02:46:32.197Z,66.69
2018-12-23T02:49:02.275Z,65.89
2018-12-23T02:51:33.380Z,66.58
2018-12-23T02:54:03.310Z,66.92
2018-12-23T02:56:33.324Z,66.45
2018-12-23T02:59:03.229Z,65.80
2018-12-23T03:01:33.129Z,66.33
2018-12-23T03:04:03.037Z,66.82
2018-12-23T03:06:33.829Z,66.54
2018-12-23T03:09:05.753Z,66.49
2018-12-23T03:11:35.790Z,66.44
2018-12-23T03:14:05.874Z,65.89
2018-12-23T03:16:35.916Z,65.75
2018-12-23T03:19:05.968Z,65.83
2018-12-23T03:21:35.931Z,66.48
2018-12-23T03:24:05.845Z,67.14
2018-12-23T03:26:35.733Z,66.44
2018-12-23T03:29:05.750Z,67.58
2018-12-23T03:31:35.795Z,67.01
2018-12-23T03:34:05.856Z,66.85
2018-12-23T03:36:35.851Z,66.46
2018-12-23T03:39:07.428Z,67.16
2018-12-23T03:41:37.408Z,67.20
2018-12-23T03:44:07.400Z,66.55
2018-12-23T03:46:37.434Z,67.90
2018-12-23T03:49:08.074Z,66.61
2018-12-23T03:51:38.102Z,67.29
2018-12-23T03:54:07.999Z,67.03
2018-12-23T03:56:37.962Z,67.10
2018-12-23T03:59:07.939Z,67.84
2018-12-23T04:01:37.904Z,67.56
2018-12-23T04:04:07.894Z,67.25
2018-12-23T04:06:37.783Z,67.06
2018-12-23T04:09:08.278Z,67.23
2018-12-23T04:11:38.258Z,67.82
2018-12-23T04:14:08.217Z,66.99
2018-12-23T04:16:38.222Z,67.14
2018-12-23T04:19:08.271Z,66.59
2018-12-23T04:21:38.309Z,66.50
2018-12-23T04:24:08.293Z,66.58
2018-12-23T04:26:38.219Z,67.27
2018-12-23T04:29:08.135Z,66.92
2018-12-23T04:31:38.033Z,67.51
2018-12-23T04:34:08.006Z,66.69
2018-12-23T04:36:37.896Z,66.30
2018-12-23T04:39:07.881Z,66.65
2018-12-23T04:41:37.781Z,66.86
2018-12-23T04:44:07.749Z,65.79
2018-12-23T04:46:37.652Z,66.76
2018-12-23T04:49:07.564Z,66.22
2018-12-23T04:51:37.463Z,66.77
2018-12-23T04:54:07.377Z,66.23
2018-12-23T04:56:37.296Z,66.36
2018-12-23T04:59:07.209Z,66.56
2018-12-23T05:01:37.170Z,66.50
2018-12-23T05:04:07.150Z,66.78
2018-12-23T05:06:43.344Z,67.46
2018-12-23T05:09:09.000Z,66.32
2018-12-23T05:11:38.960Z,66.01
2018-12-23T05:14:08.868Z,66.29
2018-12-23T05:16:38.777Z,67.02
2018-12-23T05:19:08.840Z,66.53
2018-12-23T05:21:38.741Z,66.62
2018-12-23T05:24:08.792Z,65.99
2018-12-23T05:26:38.702Z,66.83
2018-12-23T05:29:08.680Z,67.13
2018-12-23T05:31:38.653Z,66.53
2018-12-23T05:34:08.556Z,67.06
2018-12-23T05:36:38.479Z,67.00
2018-12-23T05:39:08.928Z,66.64
2018-12-23T05:41:38.988Z,66.73
2018-12-23T05:44:08.965Z,66.70
2018-12-23T05:46:38.860Z,66.26
2018-12-23T05:49:08.794Z,66.31
2018-12-23T05:51:38.688Z,66.41
2018-12-23T05:54:08.624Z,66.55
2018-12-23T05:56:38.621Z,66.26
2018-12-23T05:59:08.549Z,67.23
2018-12-23T06:01:38.507Z,67.22
2018-12-23T06:04:09.521Z,66.90
2018-12-23T06:06:39.551Z,66.36
2018-12-23T06:09:09.645Z,66.96
2018-12-23T06:11:39.652Z,66.75
2018-12-23T06:14:09.632Z,66.90
2018-12-23T06:16:39.605Z,67.26
2018-12-23T06:19:09.992Z,67.92
2018-12-23T06:21:39.984Z,68.21
2018-12-23T06:24:10.078Z,67.04
2018-12-23T06:26:40.037Z,67.25
2018-12-23T06:29:10.070Z,67.48
2018-12-23T06:31:39.964Z,67.37
2018-12-23T06:34:10.174Z,67.90
2018-12-23T06:36:40.290Z,67.56
2018-12-23T06:39:10.672Z,66.91
2018-12-23T06:41:40.640Z,68.06
2018-12-23T06:44:10.760Z,67.96
2018-12-23T06:46:40.800Z,68.28
2018-12-23T06:49:10.925Z,68.60
2018-12-23T06:51:40.847Z,69.28
2018-12-23T06:54:10.949Z,69.62
2018-12-23T06:56:41.001Z,69.79
2018-12-23T06:59:11.374Z,70.45
2018-12-23T07:01:41.276Z,70.37
2018-12-23T07:04:11.394Z,70.06
2018-12-23T07:06:41.431Z,69.37
2018-12-23T07:09:11.650Z,69.11
2018-12-23T07:11:41.638Z,69.43
2018-12-23T07:14:12.013Z,70.06
2018-12-23T07:16:42.040Z,70.21
2018-12-23T07:19:12.184Z,69.61
2018-12-23T07:21:42.080Z,69.96
2018-12-23T07:24:12.121Z,69.85
2018-12-23T07:26:43.679Z,69.77
2018-12-23T07:29:14.027Z,70.27
2018-12-23T07:31:44.020Z,70.35
2018-12-23T07:34:14.272Z,70.48
2018-12-23T07:36:49.599Z,70.01
2018-12-23T07:39:16.341Z,70.38
2018-12-23T07:41:53.091Z,70.09
2018-12-23T07:44:23.026Z,69.64
2018-12-23T07:46:53.020Z,70.20
2018-12-23T07:49:23.008Z,70.50
2018-12-23T07:51:52.904Z,70.49
2018-12-23T07:54:22.808Z,70.11
2018-12-23T07:56:52.842Z,69.79
2018-12-23T07:59:22.820Z,70.16
2018-12-23T08:01:52.736Z,70.16
2018-12-23T08:04:22.712Z,70.54
2018-12-23T08:06:52.664Z,70.00
2018-12-23T08:09:22.621Z,70.27
2018-12-23T08:11:52.640Z,69.96
2018-12-23T08:14:22.567Z,69.89
2018-12-23T08:16:52.632Z,69.61
2018-12-23T08:19:22.548Z,70.07
2018-12-23T08:21:52.786Z,70.27
2018-12-23T08:24:22.811Z,69.85
2018-12-23T08:26:52.713Z,70.33
2018-12-23T08:29:22.709Z,70.27
2018-12-23T08:31:52.612Z,69.70
2018-12-23T08:34:23.569Z,69.40
2018-12-23T08:36:53.484Z,70.08
2018-12-23T08:39:23.387Z,69.48
2018-12-23T08:41:53.284Z,69.71
2018-12-23T08:44:23.209Z,69.08
2018-12-23T08:46:53.104Z,69.60
2018-12-23T08:49:23.096Z,69.17
2018-12-23T08:51:52.993Z,68.48
2018-12-23T08:54:23.485Z,67.84
2018-12-23T08:56:53.376Z,68.29
2018-12-23T08:59:23.436Z,67.63
2018-12-23T09:01:53.349Z,67.99
2018-12-23T09:04:23.284Z,68.49
2018-12-23T09:06:53.181Z,68.34
2018-12-23T09:09:23.216Z,67.98
2018-12-23T09:11:56.836Z,67.02
2018-12-23T09:14:27.795Z,67.45
2018-12-23T09:16:57.904Z,67.44
2018-12-23T09:19:27.844Z,67.49
2018-12-23T09:21:57.764Z,67.23
2018-12-23T09:24:27.705Z,67.06
2018-12-23T09:26:57.696Z,66.68
2018-12-23T09:32:54.954Z,66.51
2018-12-23T09:35:26.528Z,66.79
2018-12-23T09:38:01.601Z,66.39
2018-12-23T09:40:31.700Z,65.99
2018-12-23T09:43:03.818Z,66.05
2018-12-23T09:45:35.321Z,66.12
2018-12-23T09:48:06.815Z,65.64
2018-12-23T09:50:38.392Z,65.65
2018-12-23T09:53:10.198Z,66.21
2018-12-23T09:55:41.719Z,65.91
2018-12-23T09:58:13.216Z,65.66
2018-12-23T10:00:44.993Z,65.39
2018-12-23T10:03:16.739Z,65.61
2018-12-23T10:05:48.255Z,66.12
2018-12-23T10:08:20.057Z,66.07
2018-12-23T10:10:51.676Z,65.73
2018-12-23T10:13:23.492Z,65.28
2018-12-23T10:15:55.083Z,65.67
2018-12-23T10:18:26.671Z,65.55
2018-12-23T10:20:58.509Z,65.30
2018-12-23T10:23:29.995Z,65.34
2018-12-23T10:26:01.504Z,64.84
2018-12-23T10:28:33.121Z,64.61
2018-12-23T10:31:04.631Z,64.69
2018-12-23T10:33:36.119Z,65.18
2018-12-23T10:36:07.793Z,64.80
2018-12-23T10:38:39.927Z,64.74
2018-12-23T10:41:11.919Z,64.88
2018-12-23T10:43:43.746Z,65.66
2018-12-23T10:46:15.331Z,65.96
2018-12-23T10:48:46.870Z,66.13
2018-12-23T10:51:18.456Z,66.21
2018-12-23T10:53:51.185Z,66.62
2018-12-23T10:56:23.149Z,66.43
2018-12-23T10:58:54.736Z,66.50
2018-12-23T11:01:26.785Z,65.97
2018-12-23T11:03:58.586Z,65.57
2018-12-23T11:06:30.187Z,64.57
2018-12-23T11:09:01.743Z,63.71
2018-12-23T11:11:33.566Z,64.20
2018-12-23T11:14:05.072Z,64.53
2018-12-23T11:16:36.845Z,64.07
2018-12-23T11:19:08.893Z,63.88
2018-12-23T11:21:40.979Z,63.28
2018-12-23T11:24:12.478Z,63.91
2018-12-23T11:26:44.014Z,63.69
2018-12-23T11:29:16.656Z,63.66
2018-12-23T11:31:48.790Z,63.71
2018-12-23T11:34:21.850Z,64.09
2018-12-23T11:36:53.364Z,64.54
2018-12-23T11:39:25.201Z,64.29
2018-12-23T11:41:56.902Z,64.21
2018-12-23T11:44:28.509Z,64.73
2018-12-23T11:47:00.395Z,63.85
2018-12-23T11:49:31.897Z,63.79
2018-12-23T11:52:03.505Z,63.66
2018-12-23T11:54:35.133Z,63.79
2018-12-23T11:57:06.980Z,63.78
2018-12-23T11:59:38.792Z,63.56
2018-12-23T12:02:15.252Z,63.75
2018-12-23T12:04:43.684Z,63.79
2018-12-23T12:07:15.286Z,63.77
2018-12-23T12:09:47.088Z,64.30
2018-12-23T12:12:19.002Z,64.54
2018-12-23T12:14:51.496Z,64.60
2018-12-23T12:17:23.048Z,65.01
2018-12-23T12:19:54.553Z,64.75
2018-12-23T12:22:26.166Z,64.77
2018-12-23T12:24:57.747Z,65.53
2018-12-23T12:27:29.710Z,65.41
2018-12-23T12:30:01.336Z,65.13
2018-12-23T12:32:33.235Z,65.93
2018-12-23T12:35:04.792Z,65.99
2018-12-23T12:37:36.569Z,66.49
2018-12-23T12:40:08.137Z,66.57
2018-12-23T12:42:39.668Z,67.42
2018-12-23T12:45:11.821Z,67.60
2018-12-23T12:47:43.615Z,67.73
2018-12-23T12:50:15.113Z,67.48
2018-12-23T12:52:46.949Z,67.94
2018-12-23T12:55:18.545Z,68.25
2018-12-23T12:57:50.513Z,68.24
2018-12-23T13:00:22.676Z,68.42
2018-12-23T13:02:54.592Z,68.83
2018-12-23T13:05:26.819Z,68.69
2018-12-23T13:07:58.562Z,68.66
2018-12-23T13:10:30.129Z,68.63
2018-12-23T13:13:01.817Z,69.16
2018-12-23T13:15:33.570Z,69.16
2018-12-23T13:18:05.397Z,69.06
2018-12-23T13:20:37.457Z,68.80
2018-12-23T13:23:08.982Z,69.09
2018-12-23T13:25:40.879Z,69.24
2018-12-23T13:28:13.196Z,69.20
2018-12-23T13:30:45.013Z,69.36
2018-12-23T13:33:17.290Z,69.50
2018-12-23T13:35:49.404Z,69.26
2018-12-23T13:38:22.043Z,69.71
2018-12-23T13:42:08.515Z,69.99
2018-12-23T13:45:38.691Z,70.01
2018-12-23T13:49:21.594Z,70.39
2018-12-23T13:52:50.918Z,70.37
2018-12-23T13:55:52.118Z,70.35
2018-12-23T13:59:15.812Z,70.44
2018-12-23T14:02:35.758Z,70.07
2018-12-23T14:05:53.520Z,70.10
2018-12-23T14:09:23.363Z,70.50
2018-12-23T14:11:56.467Z,70.08
2018-12-23T14:14:29.638Z,70.06
2018-12-23T14:17:01.198Z,70.63
2018-12-23T14:19:32.735Z,70.35
2018-12-23T14:22:04.319Z,70.76
2018-12-23T14:24:36.103Z,70.90
2018-12-23T14:27:07.602Z,71.42
2018-12-23T14:29:40.190Z,70.53
2018-12-23T14:32:11.949Z,71.01
2018-12-23T14:34:43.597Z,71.04
2018-12-23T14:38:56.038Z,71.21
2018-12-23T14:41:27.870Z,71.66
2018-12-23T14:43:59.560Z,71.37
2018-12-23T14:46:31.148Z,71.42
2018-12-23T14:49:03.032Z,71.36
2018-12-23T14:51:35.942Z,71.70
2018-12-23T14:54:07.826Z,71.47
2018-12-23T14:56:39.420Z,71.36
2018-12-23T14:59:10.913Z,71.88
2018-12-23T15:01:42.462Z,71.38
2018-12-23T15:04:14.031Z,71.01
2018-12-23T15:06:45.873Z,71.26
2018-12-23T15:09:17.720Z,71.63
2018-12-23T15:11:49.949Z,71.73
2018-12-23T15:14:22.270Z,71.96
2018-12-23T15:16:54.354Z,72.44
2018-12-23T15:19:25.844Z,71.99
2018-12-23T15:21:57.652Z,72.22
2018-12-23T15:24:29.406Z,71.80
2018-12-23T15:27:01.096Z,72.05
2018-12-23T15:29:32.923Z,72.03
2018-12-23T15:32:04.555Z,72.38
2018-12-23T15:34:36.439Z,72.34
2018-12-23T15:37:08.516Z,72.13
2018-12-23T15:39:42.670Z,72.61
2018-12-23T15:42:13.571Z,72.44
2018-12-23T15:44:45.068Z,72.60
2018-12-23T15:47:17.307Z,72.55
2018-12-23T15:49:49.143Z,72.72
2018-12-23T15:52:20.946Z,72.64
2018-12-23T15:54:52.859Z,73.11
2018-12-23T15:57:24.822Z,72.80
2018-12-23T15:59:56.314Z,72.50
2018-12-23T16:02:28.236Z,72.54
2018-12-23T16:04:59.967Z,72.85
2018-12-23T16:07:31.510Z,72.89
2018-12-23T16:10:03.032Z,73.19
2018-12-23T16:12:34.861Z,73.08
2018-12-23T16:15:06.603Z,72.77
2018-12-23T16:17:39.091Z,72.83
2018-12-23T16:20:13.430Z,73.01
2018-12-23T16:22:45.016Z,73.07
2018-12-23T16:25:17.130Z,73.26
2018-12-23T16:27:48.750Z,73.26
2018-12-23T16:30:20.345Z,73.34
2018-12-23T16:32:52.905Z,73.85
2018-12-23T16:35:24.475Z,73.81
2018-12-23T16:37:56.082Z,74.36
2018-12-23T16:40:27.563Z,74.93
2018-12-23T16:42:59.278Z,75.40
2018-12-23T16:45:31.000Z,76.05
2018-12-23T16:48:03.818Z,76.12
2018-12-23T16:50:35.312Z,75.99
2018-12-23T16:53:06.842Z,76.43
2018-12-23T16:55:38.334Z,76.51
2018-12-23T16:58:10.605Z,76.58
2018-12-23T17:00:42.479Z,76.46
2018-12-23T17:03:14.008Z,76.10
2018-12-23T17:05:45.693Z,75.97
2018-12-23T17:08:17.260Z,76.61
2018-12-23T17:10:48.811Z,76.68
2018-12-23T17:13:20.634Z,76.75
2018-12-23T17:15:52.707Z,76.35
2018-12-23T17:18:24.291Z,76.15
2018-12-23T17:20:55.808Z,77.07
2018-12-23T17:23:27.432Z,77.50
2018-12-23T17:25:58.919Z,76.69
2018-12-23T17:28:30.563Z,76.54
2018-12-23T17:31:02.249Z,76.61
2018-12-23T17:33:33.839Z,76.69
2018-12-23T17:36:05.419Z,76.71
2018-12-23T17:38:37.128Z,76.78
2018-12-23T17:41:08.633Z,76.40
2018-12-23T17:43:40.231Z,76.46
2018-12-23T17:46:12.084Z,76.67
2018-12-23T17:48:43.601Z,76.88
2018-12-23T17:51:15.296Z,76.79
2018-12-23T17:53:47.012Z,77.07
2018-12-23T17:56:18.878Z,76.71
2018-12-23T17:58:50.760Z,76.87
2018-12-23T18:01:23.221Z,76.86
2018-12-23T18:04:02.235Z,77.04
2018-12-23T18:06:29.026Z,76.87
2018-12-23T18:09:00.691Z,76.88
2018-12-23T18:11:32.525Z,76.88
2018-12-23T18:14:04.065Z,76.86
2018-12-23T18:16:35.841Z,77.29
2018-12-23T18:19:07.680Z,77.22
2018-12-23T18:21:39.847Z,76.94
2018-12-23T18:24:11.443Z,77.11
2018-12-23T18:26:45.258Z,77.22
2018-12-23T18:29:16.418Z,77.55
2018-12-23T18:31:48.023Z,77.33
2018-12-23T18:34:19.617Z,77.33
2018-12-23T18:36:51.525Z,77.15
2018-12-23T18:39:23.173Z,77.34
2018-12-23T18:41:54.936Z,77.56
2018-12-23T18:44:26.771Z,77.92
2018-12-23T18:46:58.583Z,77.71
2018-12-23T18:49:30.239Z,77.78
2018-12-23T18:52:01.735Z,77.62
2018-12-23T18:54:45.609Z,77.69
2018-12-23T18:57:19.844Z,77.61
2018-12-23T18:59:54.401Z,77.27
2018-12-23T19:02:52.897Z,77.47
2018-12-23T19:05:26.225Z,77.95
2018-12-23T19:08:07.610Z,77.90
2018-12-23T19:11:55.159Z,78.25
2018-12-23T19:15:38.182Z,77.90
2018-12-23T19:18:46.403Z,77.44
2018-12-23T19:22:10.846Z,78.78
2018-12-23T19:25:43.463Z,78.82
2018-12-23T19:29:02.465Z,78.78
2018-12-23T19:32:15.907Z,78.52
2018-12-23T19:36:00.466Z,78.77
2018-12-23T19:39:28.394Z,78.80
2018-12-23T19:43:00.139Z,78.45
2018-12-23T19:46:18.027Z,79.15
2018-12-23T19:49:54.311Z,78.87
2018-12-23T19:53:42.771Z,78.31
2018-12-23T19:56:53.060Z,78.65
2018-12-23T19:59:57.956Z,78.81
2018-12-23T20:03:28.001Z,79.12
2018-12-23T20:06:40.488Z,78.86
2018-12-23T20:10:24.554Z,78.91
2018-12-23T20:13:37.315Z,78.92
2018-12-23T20:17:04.351Z,78.94
2018-12-23T20:20:26.469Z,79.21
2018-12-23T20:24:12.074Z,78.89
2018-12-23T20:27:32.862Z,78.65
2018-12-23T20:30:33.480Z,78.31
2018-12-23T20:33:46.394Z,78.67
2018-12-23T20:37:21.358Z,78.01
2018-12-23T20:41:07.506Z,78.04
2018-12-23T20:44:40.666Z,78.31
2018-12-23T20:47:57.558Z,78.43
2018-12-23T20:51:22.282Z,78.62
2018-12-23T20:54:32.477Z,77.84
2018-12-23T20:57:51.370Z,78.19
2018-12-23T21:01:34.306Z,77.83
2018-12-23T21:04:41.509Z,78.11
2018-12-23T21:08:08.301Z,78.26
2018-12-23T21:11:32.995Z,78.49
2018-12-23T21:14:49.276Z,77.88
2018-12-23T21:18:23.176Z,77.32
2018-12-23T21:21:39.878Z,77.18
2018-12-23T21:25:34.897Z,77.14
2018-12-23T21:29:48.880Z,77.08
2018-12-23T21:33:07.982Z,77.27
2018-12-23T21:36:24.541Z,77.60
2018-12-23T21:39:40.396Z,77.68
2018-12-23T21:43:10.587Z,77.48
2018-12-23T21:46:31.083Z,77.87
2018-12-23T21:50:00.935Z,77.41
2018-12-23T21:53:29.177Z,77.85
2018-12-23T21:57:24.334Z,78.26
2018-12-23T22:00:41.051Z,78.32
2018-12-23T22:03:57.970Z,78.67
2018-12-23T22:07:27.073Z,77.97
2018-12-23T22:10:32.218Z,78.16
2018-12-23T22:13:28.437Z,78.51
2018-12-23T22:15:59.949Z,78.26
2018-12-23T22:18:31.798Z,77.73
2018-12-23T22:21:03.546Z,77.49
2018-12-23T22:23:35.393Z,77.69
2018-12-23T22:26:07.003Z,77.64
2018-12-23T22:28:38.493Z,77.53
2018-12-23T22:31:10.017Z,77.91
2018-12-23T22:33:43.035Z,77.61
2018-12-23T22:36:14.546Z,77.69
2018-12-23T22:38:46.054Z,77.59
2018-12-23T22:41:22.991Z,77.87
2018-12-23T22:43:54.748Z,78.18
2018-12-23T22:46:26.656Z,78.12
2018-12-23T22:48:58.492Z,78.80
2018-12-23T22:51:29.992Z,78.73
2018-12-23T22:54:01.721Z,78.84
2018-12-23T22:56:33.264Z,78.90
2018-12-23T22:59:04.929Z,78.66
2018-12-23T23:01:39.061Z,79.34
2018-12-23T23:04:09.658Z,79.26
2018-12-23T23:06:41.233Z,78.96
2018-12-23T23:09:12.781Z,79.37
2018-12-23T23:11:49.773Z,78.58
2018-12-23T23:14:18.542Z,78.64
2018-12-23T23:16:50.052Z,78.83
2018-12-23T23:19:21.525Z,78.65
2018-12-23T23:21:54.406Z,78.71
2018-12-23T23:24:26.187Z,78.77
2018-12-23T23:26:57.758Z,78.40
2018-12-23T23:29:30.395Z,78.43
2018-12-23T23:32:01.935Z,78.31
2018-12-23T23:34:33.720Z,78.52
2018-12-23T23:37:05.470Z,78.06
2018-12-23T23:39:36.961Z,79.00
2018-12-23T23:42:08.747Z,78.68
2018-12-23T23:44:40.224Z,78.28
2018-12-23T23:47:11.716Z,78.51
2018-12-23T23:49:43.794Z,78.85
2018-12-23T23:52:15.395Z,79.27
2018-12-23T23:54:46.825Z,79.69
2018-12-23T23:57:18.460Z,79.58
2018-12-23T23:59:49.946Z,79.42
